createdAt,value
2023-03-12T00:00:41.016Z,1008.24
2023-03-12T00:01:40.064Z,1008.21
2023-03-12T00:02:41.008Z,1008.19
2023-03-12T00:03:40.089Z,1008.17
2023-03-12T00:04:40.013Z,1008.23
2023-03-12T00:05:39.998Z,1008.23
2023-03-12T00:06:39.996Z,1008.28
2023-03-12T00:07:40.124Z,1008.23
2023-03-12T00:08:39.963Z,1008.26
2023-03-12T00:09:39.939Z,1008.25
2023-03-12T00:10:40.893Z,1008.21
2023-03-12T00:11:40.868Z,1008.21
2023-03-12T00:12:39.903Z,1008.25
2023-03-12T00:13:40.008Z,1008.19
2023-03-12T00:14:39.880Z,1008.18
2023-03-12T00:15:39.905Z,1008.21
2023-03-12T00:16:40.837Z,1008.17
2023-03-12T00:17:39.831Z,1008.19
2023-03-12T00:18:39.825Z,1008.18
2023-03-12T00:19:39.841Z,1008.15
2023-03-12T00:20:39.822Z,1008.16
2023-03-12T00:21:39.783Z,1008.08
2023-03-12T00:22:39.777Z,1008.09
2023-03-12T00:23:39.759Z,1008.08
2023-03-12T00:24:39.744Z,1008.12
2023-03-12T00:25:39.833Z,1008.07
2023-03-12T00:26:39.735Z,1008.08
2023-03-12T00:27:39.705Z,1008.09
2023-03-12T00:28:39.687Z,1008.05
2023-03-12T00:29:39.681Z,1008.08
2023-03-12T00:30:39.665Z,1008.08
2023-03-12T00:31:39.726Z,1008.09
2023-03-12T00:32:39.681Z,1008.00
2023-03-12T00:33:39.636Z,1008.01
2023-03-12T00:34:39.617Z,1007.99
2023-03-12T00:35:39.627Z,1007.97
2023-03-12T00:36:39.587Z,1007.99
2023-03-12T00:37:39.644Z,1007.94
2023-03-12T00:38:39.562Z,1007.91
2023-03-12T00:39:39.547Z,1007.96
2023-03-12T00:40:39.536Z,1007.89
2023-03-12T00:41:40.493Z,1007.88
2023-03-12T00:42:39.517Z,1007.92
2023-03-12T00:43:39.690Z,1007.89
2023-03-12T00:44:39.495Z,1007.84
2023-03-12T00:45:39.468Z,1007.84
2023-03-12T00:46:39.488Z,1007.85
2023-03-12T00:47:39.449Z,1007.81
2023-03-12T00:48:39.436Z,1007.84
2023-03-12T00:49:39.528Z,1007.81
2023-03-12T00:50:39.417Z,1007.80
2023-03-12T00:51:39.403Z,1007.76
2023-03-12T00:52:39.388Z,1007.80
2023-03-12T00:53:39.373Z,1007.74
2023-03-12T00:54:39.360Z,1007.75
2023-03-12T00:55:39.380Z,1007.74
2023-03-12T00:56:39.333Z,1007.69
2023-03-12T00:57:39.312Z,1007.71
2023-03-12T00:58:39.308Z,1007.69
2023-03-12T00:59:39.284Z,1007.66
2023-03-12T01:00:39.297Z,1007.65
2023-03-12T01:01:39.283Z,1007.64
2023-03-12T01:02:39.255Z,1007.65
2023-03-12T01:03:39.245Z,1007.61
2023-03-12T01:04:40.178Z,1007.64
2023-03-12T01:05:39.207Z,1007.59
2023-03-12T01:06:39.212Z,1007.60
2023-03-12T01:07:39.300Z,1007.62
2023-03-12T01:08:39.186Z,1007.58
2023-03-12T01:09:39.163Z,1007.62
2023-03-12T01:10:39.151Z,1007.56
2023-03-12T01:11:39.141Z,1007.59
2023-03-12T01:12:39.126Z,1007.54
2023-03-12T01:13:39.134Z,1007.58
2023-03-12T01:14:40.055Z,1007.56
2023-03-12T01:15:39.088Z,1007.60
2023-03-12T01:16:39.124Z,1007.58
2023-03-12T01:17:40.014Z,1007.54
2023-03-12T01:18:39.044Z,1007.54
2023-03-12T01:19:39.049Z,1007.53
2023-03-12T01:20:39.027Z,1007.54
2023-03-12T01:21:39.013Z,1007.58
2023-03-12T01:22:39.014Z,1007.59
2023-03-12T01:23:38.988Z,1007.57
2023-03-12T01:24:39.928Z,1007.61
2023-03-12T01:25:38.978Z,1007.58
2023-03-12T01:26:39.905Z,1007.54
2023-03-12T01:27:39.880Z,1007.59
2023-03-12T01:28:38.928Z,1007.56
2023-03-12T01:29:38.902Z,1007.56
2023-03-12T01:30:38.904Z,1007.56
2023-03-12T01:31:39.042Z,1007.58
2023-03-12T01:32:38.913Z,1007.57
2023-03-12T01:33:38.856Z,1007.55
2023-03-12T01:34:38.843Z,1007.58
2023-03-12T01:35:38.910Z,1007.50
2023-03-12T01:36:38.824Z,1007.58
2023-03-12T01:37:38.816Z,1007.56
2023-03-12T01:38:38.783Z,1007.53
2023-03-12T01:39:38.770Z,1007.49
2023-03-12T01:40:38.762Z,1007.50
2023-03-12T01:41:38.752Z,1007.48
2023-03-12T01:42:38.734Z,1007.51
2023-03-12T01:43:38.754Z,1007.50
2023-03-12T01:44:38.703Z,1007.48
2023-03-12T01:45:38.720Z,1007.46
2023-03-12T01:46:38.693Z,1007.46
2023-03-12T01:47:38.673Z,1007.50
2023-03-12T01:48:39.608Z,1007.46
2023-03-12T01:49:38.684Z,1007.51
2023-03-12T01:50:38.637Z,1007.51
2023-03-12T01:51:38.615Z,1007.50
2023-03-12T01:52:38.595Z,1007.46
2023-03-12T01:53:38.588Z,1007.49
2023-03-12T01:54:38.582Z,1007.51
2023-03-12T01:55:38.614Z,1007.49
2023-03-12T01:56:38.545Z,1007.41
2023-03-12T01:57:38.544Z,1007.49
2023-03-12T01:58:39.499Z,1007.42
2023-03-12T01:59:38.520Z,1007.40
2023-03-12T02:00:38.499Z,1007.39
2023-03-12T02:01:38.598Z,1007.44
2023-03-12T02:02:38.468Z,1007.37
2023-03-12T02:03:38.504Z,1007.40
2023-03-12T02:04:38.443Z,1007.44
2023-03-12T02:05:38.444Z,1007.42
2023-03-12T02:06:38.417Z,1007.39
2023-03-12T02:07:38.449Z,1007.37
2023-03-12T02:08:38.396Z,1007.31
2023-03-12T02:09:38.386Z,1007.34
2023-03-12T02:10:38.361Z,1007.35
2023-03-12T02:11:38.368Z,1007.34
2023-03-12T02:12:38.349Z,1007.31
2023-03-12T02:13:38.348Z,1007.32
2023-03-12T02:14:38.321Z,1007.29
2023-03-12T02:15:38.304Z,1007.29
2023-03-12T02:16:38.364Z,1007.29
2023-03-12T02:17:38.276Z,1007.31
2023-03-12T02:18:38.263Z,1007.26
2023-03-12T02:19:38.370Z,1007.27
2023-03-12T02:20:38.238Z,1007.25
2023-03-12T02:21:38.228Z,1007.28
2023-03-12T02:22:38.210Z,1007.25
2023-03-12T02:23:38.214Z,1007.28
2023-03-12T02:24:38.194Z,1007.28
2023-03-12T02:25:38.208Z,1007.26
2023-03-12T02:26:38.161Z,1007.25
2023-03-12T02:27:39.104Z,1007.28
2023-03-12T02:28:39.081Z,1007.25
2023-03-12T02:29:38.124Z,1007.21
2023-03-12T02:30:38.102Z,1007.23
2023-03-12T02:31:38.205Z,1007.22
2023-03-12T02:32:38.189Z,1007.23
2023-03-12T02:33:39.028Z,1007.22
2023-03-12T02:34:38.054Z,1007.18
2023-03-12T02:35:38.167Z,1007.22
2023-03-12T02:36:38.038Z,1007.22
2023-03-12T02:37:38.060Z,1007.21
2023-03-12T02:38:38.019Z,1007.16
2023-03-12T02:39:37.987Z,1007.14
2023-03-12T02:40:38.940Z,1007.09
2023-03-12T02:41:38.917Z,1007.07
2023-03-12T02:42:37.962Z,1007.12
2023-03-12T02:43:37.977Z,1007.05
2023-03-12T02:44:37.927Z,1006.99
2023-03-12T02:45:37.942Z,1007.06
2023-03-12T02:46:37.952Z,1006.99
2023-03-12T02:47:37.890Z,1006.96
2023-03-12T02:48:37.871Z,1006.94
2023-03-12T02:49:37.899Z,1006.92
2023-03-12T02:50:37.849Z,1006.94
2023-03-12T02:51:37.841Z,1006.95
2023-03-12T02:52:37.828Z,1006.93
2023-03-12T02:53:37.814Z,1006.95
2023-03-12T02:54:37.802Z,1006.95
2023-03-12T02:55:38.806Z,1006.96
2023-03-12T02:56:37.781Z,1006.99
2023-03-12T02:57:37.763Z,1007.00
2023-03-12T02:58:37.744Z,1007.02
2023-03-12T02:59:37.727Z,1007.06
2023-03-12T03:00:37.720Z,1006.98
2023-03-12T03:01:37.815Z,1006.96
2023-03-12T03:02:37.686Z,1006.92
2023-03-12T03:03:37.685Z,1006.93
2023-03-12T03:04:37.675Z,1006.90
2023-03-12T03:05:37.658Z,1006.83
2023-03-12T03:06:37.638Z,1006.84
2023-03-12T03:07:37.682Z,1006.86
2023-03-12T03:08:38.579Z,1006.82
2023-03-12T03:09:37.600Z,1006.82
2023-03-12T03:10:37.592Z,1006.82
2023-03-12T03:11:37.591Z,1006.82
2023-03-12T03:12:37.563Z,1006.77
2023-03-12T03:13:37.674Z,1006.82
2023-03-12T03:14:37.543Z,1006.82
2023-03-12T03:15:37.622Z,1006.84
2023-03-12T03:16:37.509Z,1006.76
2023-03-12T03:17:37.514Z,1006.81
2023-03-12T03:18:37.484Z,1006.77
2023-03-12T03:19:38.451Z,1006.75
2023-03-12T03:20:37.457Z,1006.75
2023-03-12T03:21:37.450Z,1006.74
2023-03-12T03:22:37.439Z,1006.64
2023-03-12T03:23:37.427Z,1006.65
2023-03-12T03:24:37.410Z,1006.55
2023-03-12T03:25:37.438Z,1006.54
2023-03-12T03:26:37.405Z,1006.52
2023-03-12T03:27:37.388Z,1006.54
2023-03-12T03:28:37.351Z,1006.54
2023-03-12T03:29:37.348Z,1006.55
2023-03-12T03:30:37.329Z,1006.52
2023-03-12T03:31:37.353Z,1006.52
2023-03-12T03:32:37.372Z,1006.51
2023-03-12T03:33:37.292Z,1006.49
2023-03-12T03:34:37.282Z,1006.48
2023-03-12T03:35:37.277Z,1006.62
2023-03-12T03:36:37.250Z,1006.54
2023-03-12T03:37:37.403Z,1006.59
2023-03-12T03:38:37.232Z,1006.56
2023-03-12T03:39:37.214Z,1006.59
2023-03-12T03:40:37.210Z,1006.50
2023-03-12T03:41:37.205Z,1006.51
2023-03-12T03:42:37.172Z,1006.48
2023-03-12T03:43:38.154Z,1006.46
2023-03-12T03:44:37.159Z,1006.42
2023-03-12T03:45:37.161Z,1006.46
2023-03-12T03:46:37.210Z,1006.43
2023-03-12T03:47:37.118Z,1006.44
2023-03-12T03:48:37.096Z,1006.44
2023-03-12T03:49:37.116Z,1006.43
2023-03-12T03:50:37.068Z,1006.48
2023-03-12T03:51:37.067Z,1006.43
2023-03-12T03:52:37.050Z,1006.46
2023-03-12T03:53:37.037Z,1006.41
2023-03-12T03:54:37.021Z,1006.40
2023-03-12T03:55:37.039Z,1006.41
2023-03-12T03:56:36.989Z,1006.43
2023-03-12T03:57:36.981Z,1006.41
2023-03-12T03:58:36.970Z,1006.46
2023-03-12T03:59:36.952Z,1006.46
2023-03-12T04:00:37.902Z,1006.49
2023-03-12T04:01:36.964Z,1006.51
2023-03-12T04:02:36.913Z,1006.51
2023-03-12T04:03:37.052Z,1006.52
2023-03-12T04:04:36.888Z,1006.54
2023-03-12T04:05:36.938Z,1006.48
2023-03-12T04:06:36.854Z,1006.45
2023-03-12T04:07:36.888Z,1006.44
2023-03-12T04:08:37.797Z,1006.43
2023-03-12T04:09:36.825Z,1006.37
2023-03-12T04:10:36.840Z,1006.36
2023-03-12T04:11:36.825Z,1006.37
2023-03-12T04:12:36.776Z,1006.34
2023-03-12T04:13:37.785Z,1006.34
2023-03-12T04:14:36.773Z,1006.38
2023-03-12T04:15:36.747Z,1006.32
2023-03-12T04:16:37.692Z,1006.35
2023-03-12T04:17:36.727Z,1006.29
2023-03-12T04:18:37.674Z,1006.29
2023-03-12T04:19:36.811Z,1006.33
2023-03-12T04:20:37.648Z,1006.31
2023-03-12T04:21:37.626Z,1006.29
2023-03-12T04:22:36.650Z,1006.32
2023-03-12T04:23:36.663Z,1006.29
2023-03-12T04:24:36.630Z,1006.26
2023-03-12T04:25:36.743Z,1006.27
2023-03-12T04:26:36.607Z,1006.15
2023-03-12T04:27:36.592Z,1006.22
2023-03-12T04:28:36.582Z,1006.22
2023-03-12T04:29:36.570Z,1006.24
2023-03-12T04:30:36.544Z,1006.21
2023-03-12T04:31:36.771Z,1006.14
2023-03-12T04:32:36.548Z,1006.22
2023-03-12T04:33:36.521Z,1006.19
2023-03-12T04:34:36.502Z,1006.21
2023-03-12T04:35:36.509Z,1006.19
2023-03-12T04:36:36.482Z,1006.15
2023-03-12T04:37:36.494Z,1006.07
2023-03-12T04:38:36.455Z,1006.05
2023-03-12T04:39:36.428Z,1006.09
2023-03-12T04:40:36.428Z,1006.03
2023-03-12T04:41:36.410Z,1006.03
2023-03-12T04:42:36.399Z,1006.01
2023-03-12T04:43:36.491Z,1006.00
2023-03-12T04:44:36.389Z,1005.97
2023-03-12T04:45:36.363Z,1005.98
2023-03-12T04:46:37.474Z,1005.98
2023-03-12T04:47:37.295Z,1005.93
2023-03-12T04:48:36.326Z,1005.97
2023-03-12T04:49:36.376Z,1005.89
2023-03-12T04:50:36.299Z,1005.87
2023-03-12T04:51:36.286Z,1005.83
2023-03-12T04:52:36.278Z,1005.80
2023-03-12T04:53:36.287Z,1005.77
2023-03-12T04:54:37.200Z,1005.77
2023-03-12T04:55:36.270Z,1005.74
2023-03-12T04:56:36.219Z,1005.72
2023-03-12T04:57:36.202Z,1005.71
2023-03-12T04:58:36.194Z,1005.69
2023-03-12T04:59:36.181Z,1005.69
2023-03-12T05:00:36.174Z,1005.71
2023-03-12T05:01:36.176Z,1005.63
2023-03-12T05:02:36.170Z,1005.64
2023-03-12T05:03:36.186Z,1005.66
2023-03-12T05:04:37.074Z,1005.66
2023-03-12T05:05:36.103Z,1005.61
2023-03-12T05:06:36.104Z,1005.58
2023-03-12T05:07:36.122Z,1005.52
2023-03-12T05:08:36.078Z,1005.55
2023-03-12T05:09:36.055Z,1005.53
2023-03-12T05:10:36.059Z,1005.57
2023-03-12T05:11:39.148Z,1005.55
2023-03-12T05:12:36.029Z,1005.56
2023-03-12T05:13:36.042Z,1005.51
2023-03-12T05:14:35.989Z,1005.45
2023-03-12T05:15:35.979Z,1005.43
2023-03-12T05:16:36.013Z,1005.39
2023-03-12T05:17:35.953Z,1005.40
2023-03-12T05:18:35.947Z,1005.38
2023-03-12T05:19:35.943Z,1005.36
2023-03-12T05:20:35.913Z,1005.31
2023-03-12T05:21:35.896Z,1005.31
2023-03-12T05:22:35.889Z,1005.35
2023-03-12T05:23:35.867Z,1005.26
2023-03-12T05:24:35.861Z,1005.19
2023-03-12T05:25:35.874Z,1005.21
2023-03-12T05:26:35.843Z,1005.24
2023-03-12T05:27:35.814Z,1005.23
2023-03-12T05:28:35.805Z,1005.21
2023-03-12T05:29:35.784Z,1005.22
2023-03-12T05:30:35.784Z,1005.23
2023-03-12T05:31:35.932Z,1005.18
2023-03-12T05:32:35.814Z,1005.22
2023-03-12T05:33:35.738Z,1005.18
2023-03-12T05:34:35.729Z,1005.17
2023-03-12T05:35:35.731Z,1005.07
2023-03-12T05:36:35.721Z,1005.08
2023-03-12T05:37:35.718Z,1005.05
2023-03-12T05:38:35.682Z,1005.04
2023-03-12T05:39:35.659Z,1005.00
2023-03-12T05:40:35.658Z,1005.02
2023-03-12T05:41:35.647Z,1005.05
2023-03-12T05:42:36.588Z,1005.03
2023-03-12T05:43:35.722Z,1005.05
2023-03-12T05:44:35.603Z,1004.99
2023-03-12T05:45:35.596Z,1005.02
2023-03-12T05:46:35.573Z,1005.02
2023-03-12T05:47:35.567Z,1004.99
2023-03-12T05:48:36.507Z,1005.06
2023-03-12T05:49:35.651Z,1005.07
2023-03-12T05:50:35.516Z,1005.06
2023-03-12T05:51:36.471Z,1005.07
2023-03-12T05:52:36.445Z,1005.06
2023-03-12T05:53:35.482Z,1005.06
2023-03-12T05:54:35.472Z,1004.99
2023-03-12T05:55:35.492Z,1005.04
2023-03-12T05:56:36.407Z,1005.01
2023-03-12T05:57:35.424Z,1005.05
2023-03-12T05:58:35.422Z,1005.00
2023-03-12T05:59:35.406Z,1005.01
2023-03-12T06:00:36.334Z,1005.05
2023-03-12T06:01:35.417Z,1005.06
2023-03-12T06:02:35.452Z,1005.02
2023-03-12T06:03:35.384Z,1005.03
2023-03-12T06:04:35.333Z,1004.97
2023-03-12T06:05:35.317Z,1004.94
2023-03-12T06:06:35.305Z,1004.98
2023-03-12T06:07:35.318Z,1004.95
2023-03-12T06:08:36.238Z,1004.92
2023-03-12T06:09:35.266Z,1004.94
2023-03-12T06:10:35.256Z,1004.94
2023-03-12T06:11:36.185Z,1004.96
2023-03-12T06:12:36.194Z,1004.93
2023-03-12T06:13:35.333Z,1004.97
2023-03-12T06:14:36.166Z,1004.92
2023-03-12T06:15:35.190Z,1004.91
2023-03-12T06:16:35.235Z,1004.92
2023-03-12T06:17:36.120Z,1004.88
2023-03-12T06:18:35.162Z,1004.86
2023-03-12T06:19:35.170Z,1004.85
2023-03-12T06:20:36.080Z,1004.83
2023-03-12T06:21:35.117Z,1004.79
2023-03-12T06:22:36.052Z,1004.80
2023-03-12T06:23:35.081Z,1004.84
2023-03-12T06:24:35.071Z,1004.78
2023-03-12T06:25:36.127Z,1004.77
2023-03-12T06:26:35.043Z,1004.75
2023-03-12T06:27:35.993Z,1004.75
2023-03-12T06:28:35.021Z,1004.76
2023-03-12T06:29:35.003Z,1004.76
2023-03-12T06:30:34.994Z,1004.74
2023-03-12T06:31:38.574Z,1004.70
2023-03-12T06:32:35.017Z,1004.71
2023-03-12T06:33:34.957Z,1004.67
2023-03-12T06:34:34.953Z,1004.67
2023-03-12T06:35:34.969Z,1004.73
2023-03-12T06:36:34.918Z,1004.71
2023-03-12T06:37:35.899Z,1004.78
2023-03-12T06:38:34.886Z,1004.74
2023-03-12T06:39:34.883Z,1004.74
2023-03-12T06:40:34.865Z,1004.74
2023-03-12T06:41:35.808Z,1004.71
2023-03-12T06:42:34.835Z,1004.68
2023-03-12T06:43:35.821Z,1004.68
2023-03-12T06:44:34.817Z,1004.66
2023-03-12T06:45:34.798Z,1004.71
2023-03-12T06:46:34.835Z,1004.67
2023-03-12T06:47:34.770Z,1004.71
2023-03-12T06:48:35.733Z,1004.68
2023-03-12T06:49:34.963Z,1004.66
2023-03-12T06:50:34.731Z,1004.62
2023-03-12T06:51:34.712Z,1004.61
2023-03-12T06:52:34.711Z,1004.59
2023-03-12T06:53:34.690Z,1004.60
2023-03-12T06:54:34.683Z,1004.64
2023-03-12T06:55:34.683Z,1004.61
2023-03-12T06:56:34.672Z,1004.62
2023-03-12T06:57:34.634Z,1004.58
2023-03-12T06:58:35.586Z,1004.68
2023-03-12T06:59:34.615Z,1004.68
2023-03-12T07:00:34.607Z,1004.71
2023-03-12T07:01:34.627Z,1004.65
2023-03-12T07:02:34.763Z,1004.64
2023-03-12T07:03:34.566Z,1004.65
2023-03-12T07:04:34.561Z,1004.66
2023-03-12T07:05:34.546Z,1004.59
2023-03-12T07:06:34.609Z,1004.55
2023-03-12T07:07:35.481Z,1004.51
2023-03-12T07:08:34.506Z,1004.52
2023-03-12T07:09:34.485Z,1004.54
2023-03-12T07:10:34.486Z,1004.48
2023-03-12T07:11:34.463Z,1004.51
2023-03-12T07:12:34.459Z,1004.49
2023-03-12T07:13:34.543Z,1004.49
2023-03-12T07:14:35.380Z,1004.47
2023-03-12T07:15:34.409Z,1004.46
2023-03-12T07:16:35.925Z,1004.45
2023-03-12T07:17:34.392Z,1004.42
2023-03-12T07:18:34.371Z,1004.43
2023-03-12T07:19:34.381Z,1004.45
2023-03-12T07:20:34.364Z,1004.44
2023-03-12T07:21:34.352Z,1004.49
2023-03-12T07:22:34.324Z,1004.52
2023-03-12T07:23:34.317Z,1004.48
2023-03-12T07:24:34.305Z,1004.46
2023-03-12T07:25:34.399Z,1004.43
2023-03-12T07:26:34.285Z,1004.50
2023-03-12T07:27:34.263Z,1004.46
2023-03-12T07:28:34.256Z,1004.42
2023-03-12T07:29:34.227Z,1004.40
2023-03-12T07:30:34.228Z,1004.35
2023-03-12T07:31:35.302Z,1004.32
2023-03-12T07:32:35.164Z,1004.35
2023-03-12T07:33:34.278Z,1004.37
2023-03-12T07:34:34.303Z,1004.31
2023-03-12T07:35:34.292Z,1004.38
2023-03-12T07:36:34.249Z,1004.44
2023-03-12T07:37:34.174Z,1004.44
2023-03-12T07:38:34.129Z,1004.43
2023-03-12T07:39:34.154Z,1004.46
2023-03-12T07:40:34.092Z,1004.46
2023-03-12T07:41:34.078Z,1004.51
2023-03-12T07:42:35.096Z,1004.48
2023-03-12T07:43:34.123Z,1004.49
2023-03-12T07:44:34.039Z,1004.51
2023-03-12T07:45:34.084Z,1004.46
2023-03-12T07:46:34.065Z,1004.43
2023-03-12T07:47:34.166Z,1004.38
2023-03-12T07:48:34.000Z,1004.38
2023-03-12T07:49:34.020Z,1004.32
2023-03-12T07:50:34.909Z,1004.27
2023-03-12T07:51:34.902Z,1004.28
2023-03-12T07:52:33.960Z,1004.28
2023-03-12T07:53:33.944Z,1004.27
2023-03-12T07:54:33.936Z,1004.37
2023-03-12T07:55:34.052Z,1004.28
2023-03-12T07:56:35.170Z,1004.27
2023-03-12T07:57:33.942Z,1004.32
2023-03-12T07:58:34.917Z,1004.30
2023-03-12T07:59:33.838Z,1004.29
2023-03-12T08:00:33.880Z,1004.26
2023-03-12T08:01:33.925Z,1004.26
2023-03-12T08:02:33.907Z,1004.24
2023-03-12T08:03:34.042Z,1004.22
2023-03-12T08:04:33.892Z,1004.24
2023-03-12T08:05:33.811Z,1004.24
2023-03-12T08:06:33.759Z,1004.27
2023-03-12T08:07:34.835Z,1004.30
2023-03-12T08:08:33.760Z,1004.32
2023-03-12T08:09:33.720Z,1004.39
2023-03-12T08:10:33.751Z,1004.37
2023-03-12T08:11:33.678Z,1004.40
2023-03-12T08:12:33.673Z,1004.39
2023-03-12T08:13:33.709Z,1004.36
2023-03-12T08:14:33.665Z,1004.35
2023-03-12T08:15:33.630Z,1004.35
2023-03-12T08:16:33.656Z,1004.26
2023-03-12T08:17:34.568Z,1004.21
2023-03-12T08:18:33.601Z,1004.27
2023-03-12T08:19:33.698Z,1004.20
2023-03-12T08:20:33.570Z,1004.19
2023-03-12T08:21:33.551Z,1004.21
2023-03-12T08:22:33.541Z,1004.19
2023-03-12T08:23:33.522Z,1004.20
2023-03-12T08:24:33.522Z,1004.19
2023-03-12T08:25:33.533Z,1004.15
2023-03-12T08:26:33.493Z,1004.15
2023-03-12T08:27:33.475Z,1004.22
2023-03-12T08:28:34.427Z,1004.21
2023-03-12T08:29:33.470Z,1004.20
2023-03-12T08:30:33.435Z,1004.17
2023-03-12T08:31:33.498Z,1004.15
2023-03-12T08:32:33.550Z,1004.19
2023-03-12T08:33:33.394Z,1004.17
2023-03-12T08:34:33.387Z,1004.18
2023-03-12T08:35:33.383Z,1004.18
2023-03-12T08:36:33.364Z,1004.16
2023-03-12T08:37:34.328Z,1004.08
2023-03-12T08:38:33.339Z,1004.09
2023-03-12T08:39:33.318Z,1004.08
2023-03-12T08:40:33.323Z,1004.07
2023-03-12T08:41:33.300Z,1004.13
2023-03-12T08:42:33.295Z,1004.11
2023-03-12T08:43:33.300Z,1004.07
2023-03-12T08:44:33.269Z,1004.15
2023-03-12T08:45:34.206Z,1004.18
2023-03-12T08:46:33.232Z,1004.12
2023-03-12T08:47:33.213Z,1004.15
2023-03-12T08:48:33.210Z,1004.12
2023-03-12T08:49:33.308Z,1004.05
2023-03-12T08:50:33.194Z,1004.14
2023-03-12T08:51:34.118Z,1004.10
2023-03-12T08:52:33.156Z,1004.09
2023-03-12T08:53:34.100Z,1004.09
2023-03-12T08:54:33.132Z,1004.06
2023-03-12T08:55:33.219Z,1004.08
2023-03-12T08:56:33.101Z,1004.04
2023-03-12T08:57:33.098Z,1004.08
2023-03-12T08:58:33.092Z,1004.09
2023-03-12T08:59:33.073Z,1004.10
2023-03-12T09:00:33.046Z,1004.06
2023-03-12T09:01:33.161Z,1004.03
2023-03-12T09:02:33.033Z,1004.01
2023-03-12T09:03:33.099Z,1003.98
2023-03-12T09:04:33.079Z,1003.97
2023-03-12T09:05:32.993Z,1003.92
2023-03-12T09:06:32.975Z,1003.96
2023-03-12T09:07:33.987Z,1003.92
2023-03-12T09:08:32.948Z,1003.90
2023-03-12T09:09:32.945Z,1003.86
2023-03-12T09:10:32.926Z,1003.81
2023-03-12T09:11:33.997Z,1003.78
2023-03-12T09:12:33.849Z,1003.76
2023-03-12T09:13:50.766Z,1003.81
2023-03-12T09:15:01.932Z,1003.77
2023-03-12T09:15:33.869Z,1003.75
2023-03-12T09:16:32.911Z,1003.83
2023-03-12T09:17:32.849Z,1003.77
2023-03-12T09:18:33.771Z,1003.76
2023-03-12T09:19:32.859Z,1003.72
2023-03-12T09:20:32.790Z,1003.72
2023-03-12T09:21:32.789Z,1003.65
2023-03-12T09:22:32.771Z,1003.68
2023-03-12T09:23:33.721Z,1003.64
2023-03-12T09:24:32.743Z,1003.65
2023-03-12T09:25:32.863Z,1003.57
2023-03-12T09:26:32.716Z,1003.59
2023-03-12T09:27:32.736Z,1003.56
2023-03-12T09:28:32.695Z,1003.54
2023-03-12T09:29:32.671Z,1003.46
2023-03-12T09:30:32.715Z,1003.48
2023-03-12T09:31:32.703Z,1003.44
2023-03-12T09:32:32.657Z,1003.41
2023-03-12T09:33:32.630Z,1003.38
2023-03-12T09:34:32.601Z,1003.36
2023-03-12T09:35:32.617Z,1003.40
2023-03-12T09:36:32.582Z,1003.38
2023-03-12T09:37:32.643Z,1003.29
2023-03-12T09:38:32.553Z,1003.36
2023-03-12T09:39:32.568Z,1003.41
2023-03-12T09:40:32.527Z,1003.43
2023-03-12T09:41:32.532Z,1003.41
2023-03-12T09:42:32.547Z,1003.39
2023-03-12T09:43:32.536Z,1003.38
2023-03-12T09:44:32.505Z,1003.37
2023-03-12T09:45:32.465Z,1003.39
2023-03-12T09:46:32.514Z,1003.38
2023-03-12T09:47:32.442Z,1003.40
2023-03-12T09:48:32.418Z,1003.46
2023-03-12T09:49:32.557Z,1003.48
2023-03-12T09:50:32.398Z,1003.43
2023-03-12T09:51:33.337Z,1003.43
2023-03-12T09:52:32.372Z,1003.40
2023-03-12T09:53:32.368Z,1003.40
2023-03-12T09:54:32.340Z,1003.46
2023-03-12T09:55:32.380Z,1003.45
2023-03-12T09:56:33.273Z,1003.47
2023-03-12T09:57:33.263Z,1003.46
2023-03-12T09:58:32.292Z,1003.49
2023-03-12T09:59:32.292Z,1003.48
2023-03-12T10:00:32.266Z,1003.46
2023-03-12T10:01:33.265Z,1003.48
2023-03-12T10:02:32.246Z,1003.44
2023-03-12T10:03:32.303Z,1003.39
2023-03-12T10:04:32.243Z,1003.37
2023-03-12T10:05:32.210Z,1003.36
2023-03-12T10:06:32.236Z,1003.34
2023-03-12T10:07:32.205Z,1003.29
2023-03-12T10:08:32.169Z,1003.35
2023-03-12T10:09:32.158Z,1003.31
2023-03-12T10:10:32.129Z,1003.33
2023-03-12T10:11:32.157Z,1003.29
2023-03-12T10:12:32.120Z,1003.30
2023-03-12T10:13:32.174Z,1003.26
2023-03-12T10:14:32.109Z,1003.28
2023-03-12T10:15:32.179Z,1003.30
2023-03-12T10:16:32.061Z,1003.28
2023-03-12T10:17:32.093Z,1003.34
2023-03-12T10:18:32.296Z,1003.42
2023-03-12T10:19:33.006Z,1003.45
2023-03-12T10:20:32.025Z,1003.49
2023-03-12T10:21:32.013Z,1003.48
2023-03-12T10:22:32.049Z,1003.43
2023-03-12T10:23:31.976Z,1003.44
2023-03-12T10:24:31.965Z,1003.51
2023-03-12T10:25:32.003Z,1003.56
2023-03-12T10:26:31.956Z,1003.54
2023-03-12T10:27:31.934Z,1003.52
2023-03-12T10:28:31.909Z,1003.55
2023-03-12T10:29:32.854Z,1003.54
2023-03-12T10:30:31.879Z,1003.49
2023-03-12T10:31:32.876Z,1003.42
2023-03-12T10:32:31.864Z,1003.38
2023-03-12T10:33:31.869Z,1003.34
2023-03-12T10:34:31.860Z,1003.38
2023-03-12T10:35:31.986Z,1003.44
2023-03-12T10:36:31.800Z,1003.43
2023-03-12T10:37:31.857Z,1003.37
2023-03-12T10:38:31.777Z,1003.34
2023-03-12T10:39:31.773Z,1003.29
2023-03-12T10:40:31.752Z,1003.31
2023-03-12T10:41:34.726Z,1003.30
2023-03-12T10:42:32.673Z,1003.33
2023-03-12T10:43:31.841Z,1003.25
2023-03-12T10:44:31.706Z,1003.26
2023-03-12T10:45:31.691Z,1003.29
2023-03-12T10:46:34.037Z,1003.29
2023-03-12T10:47:31.668Z,1003.28
2023-03-12T10:48:31.647Z,1003.26
2023-03-12T10:49:31.758Z,1003.34
2023-03-12T10:50:31.632Z,1003.26
2023-03-12T10:51:31.607Z,1003.21
2023-03-12T10:52:31.593Z,1003.17
2023-03-12T10:53:31.585Z,1003.28
2023-03-12T10:54:31.581Z,1003.30
2023-03-12T10:55:31.602Z,1003.25
2023-03-12T10:56:31.538Z,1003.33
2023-03-12T10:57:31.534Z,1003.30
2023-03-12T10:58:31.527Z,1003.39
2023-03-12T10:59:31.519Z,1003.34
2023-03-12T11:00:31.488Z,1003.33
2023-03-12T11:01:31.584Z,1003.26
2023-03-12T11:02:31.470Z,1003.28
2023-03-12T11:03:31.466Z,1003.22
2023-03-12T11:04:31.450Z,1003.22
2023-03-12T11:05:31.508Z,1003.24
2023-03-12T11:06:31.412Z,1003.19
2023-03-12T11:07:32.384Z,1003.23
2023-03-12T11:08:31.392Z,1003.18
2023-03-12T11:09:31.373Z,1003.14
2023-03-12T11:10:31.360Z,1003.13
2023-03-12T11:11:31.352Z,1003.13
2023-03-12T11:12:31.341Z,1003.13
2023-03-12T11:13:31.379Z,1003.12
2023-03-12T11:14:31.315Z,1003.11
2023-03-12T11:15:31.305Z,1003.08
2023-03-12T11:16:32.277Z,1003.06
2023-03-12T11:17:31.285Z,1003.07
2023-03-12T11:18:31.250Z,1003.07
2023-03-12T11:19:31.292Z,1003.05
2023-03-12T11:20:32.217Z,1003.01
2023-03-12T11:21:31.229Z,1003.00
2023-03-12T11:22:31.232Z,1003.00
2023-03-12T11:23:31.212Z,1002.97
2023-03-12T11:24:31.195Z,1002.99
2023-03-12T11:25:31.212Z,1002.99
2023-03-12T11:26:31.151Z,1002.99
2023-03-12T11:27:31.143Z,1003.00
2023-03-12T11:28:31.164Z,1003.03
2023-03-12T11:29:31.126Z,1002.98
2023-03-12T11:30:31.154Z,1002.96
2023-03-12T11:31:31.140Z,1002.91
2023-03-12T11:32:31.122Z,1002.90
2023-03-12T11:33:31.076Z,1002.86
2023-03-12T11:34:32.023Z,1002.82
2023-03-12T11:35:31.065Z,1002.89
2023-03-12T11:36:31.026Z,1002.81
2023-03-12T11:37:31.144Z,1002.78
2023-03-12T11:38:30.996Z,1002.75
2023-03-12T11:39:30.996Z,1002.81
2023-03-12T11:40:31.927Z,1002.74
2023-03-12T11:41:31.917Z,1002.77
2023-03-12T11:42:30.952Z,1002.75
2023-03-12T11:43:42.726Z,1002.74
2023-03-12T11:44:31.952Z,1002.74
2023-03-12T11:45:30.918Z,1002.78
2023-03-12T11:46:30.944Z,1002.79
2023-03-12T11:47:30.930Z,1002.77
2023-03-12T11:48:31.946Z,1002.74
2023-03-12T11:49:31.841Z,1002.77
2023-03-12T11:50:31.792Z,1002.71
2023-03-12T11:51:30.831Z,1002.80
2023-03-12T11:52:30.821Z,1002.77
2023-03-12T11:53:30.807Z,1002.81
2023-03-12T11:54:30.795Z,1002.84
2023-03-12T11:55:30.887Z,1002.85
2023-03-12T11:56:30.764Z,1002.84
2023-03-12T11:57:30.763Z,1002.85
2023-03-12T11:58:30.740Z,1002.82
2023-03-12T11:59:30.736Z,1002.84
2023-03-12T12:00:30.724Z,1002.81
2023-03-12T12:01:30.742Z,1002.72
2023-03-12T12:02:30.744Z,1002.72
2023-03-12T12:03:30.758Z,1002.74
2023-03-12T12:04:30.662Z,1002.73
2023-03-12T12:05:30.660Z,1002.69